createdAt,value
2023-08-03T00:00:02.322Z,1.30
2023-08-03T00:01:04.327Z,1.20
2023-08-03T00:02:06.287Z,1.00
2023-08-03T00:03:08.348Z,1.20
2023-08-03T00:04:10.443Z,0.93
2023-08-03T00:05:12.472Z,1.15
2023-08-03T00:06:14.254Z,1.27
2023-08-03T00:07:16.240Z,1.30
2023-08-03T00:08:18.380Z,1.20
2023-08-03T00:09:20.330Z,1.27
2023-08-03T00:10:22.906Z,1.10
2023-08-03T00:11:25.003Z,1.20
2023-08-03T00:12:27.113Z,1.20
2023-08-03T00:13:28.890Z,1.02
2023-08-03T00:14:30.681Z,1.23
2023-08-03T00:15:32.481Z,0.80
2023-08-03T00:16:34.330Z,1.17
2023-08-03T00:17:38.170Z,0.93
2023-08-03T00:18:41.061Z,0.90
2023-08-03T00:19:44.743Z,0.70
2023-08-03T00:20:49.029Z,1.25
2023-08-03T00:21:50.828Z,1.30
2023-08-03T00:22:52.700Z,1.00
2023-08-03T00:23:54.480Z,1.10
2023-08-03T00:24:56.297Z,1.05
2023-08-03T00:25:58.156Z,0.70
2023-08-03T00:27:00.017Z,1.02
2023-08-03T00:28:01.862Z,0.90
2023-08-03T00:29:03.682Z,0.93
2023-08-03T00:30:06.646Z,0.80
2023-08-03T00:31:08.505Z,0.98
2023-08-03T00:32:10.475Z,1.00
2023-08-03T00:33:12.312Z,1.27
2023-08-03T00:34:14.118Z,0.93
2023-08-03T00:35:15.952Z,0.80
2023-08-03T00:36:17.754Z,0.73
2023-08-03T00:37:19.551Z,0.95
2023-08-03T00:38:23.774Z,0.95
2023-08-03T00:39:26.000Z,0.90
2023-08-03T00:40:27.799Z,0.90
2023-08-03T00:41:29.671Z,0.80
2023-08-03T00:42:31.548Z,1.10
2023-08-03T00:43:33.491Z,1.05
2023-08-03T00:44:35.596Z,1.15
2023-08-03T00:45:37.707Z,1.02
2023-08-03T00:46:39.891Z,0.95
2023-08-03T00:47:42.054Z,1.02
2023-08-03T00:48:43.917Z,1.20
2023-08-03T00:49:46.029Z,1.10
2023-08-03T00:50:47.860Z,0.93
2023-08-03T00:51:49.735Z,1.15
2023-08-03T00:52:51.531Z,1.15
2023-08-03T00:53:53.313Z,1.33
2023-08-03T00:54:55.121Z,0.95
2023-08-03T00:55:56.928Z,1.30
2023-08-03T00:56:58.824Z,1.30
2023-08-03T00:58:00.988Z,1.00
2023-08-03T00:59:12.041Z,1.20
2023-08-03T01:00:14.537Z,1.02
2023-08-03T01:01:16.413Z,1.00
2023-08-03T01:02:18.267Z,2.25
2023-08-03T01:03:20.135Z,1.30
2023-08-03T01:04:21.986Z,2.33
2023-08-03T01:05:23.845Z,1.25
2023-08-03T01:06:26.290Z,1.23
2023-08-03T01:07:28.192Z,1.20
2023-08-03T01:08:30.451Z,1.15
2023-08-03T01:09:32.286Z,1.00
2023-08-03T01:10:34.337Z,1.30
2023-08-03T01:11:36.349Z,1.13
2023-08-03T01:12:38.432Z,1.10
2023-08-03T01:13:41.103Z,1.60
2023-08-03T01:14:44.555Z,1.17
2023-08-03T01:15:46.813Z,1.45
2023-08-03T01:16:48.908Z,1.42
2023-08-03T01:17:50.925Z,1.20
2023-08-03T01:18:53.040Z,1.25
2023-08-03T01:19:55.003Z,1.38
2023-08-03T01:20:57.918Z,1.50
2023-08-03T01:22:01.638Z,1.23
2023-08-03T01:23:06.147Z,1.48
2023-08-03T01:24:08.459Z,0.93
2023-08-03T01:25:12.301Z,1.08
2023-08-03T01:26:14.145Z,1.00
2023-08-03T01:27:16.236Z,1.05
2023-08-03T01:28:18.146Z,1.20
2023-08-03T01:29:19.973Z,1.20
2023-08-03T01:30:21.817Z,1.35
2023-08-03T01:31:23.932Z,1.10
2023-08-03T01:32:26.175Z,1.15
2023-08-03T01:33:28.187Z,1.20
2023-08-03T01:34:30.237Z,1.23
2023-08-03T01:35:32.183Z,1.40
2023-08-03T01:36:33.970Z,1.48
2023-08-03T01:37:38.559Z,1.15
2023-08-03T01:38:40.457Z,1.23
2023-08-03T01:39:46.235Z,1.35
2023-08-03T01:40:48.122Z,1.20
2023-08-03T01:41:50.244Z,1.23
2023-08-03T01:42:52.083Z,1.13
2023-08-03T01:44:28.814Z,1.30
2023-08-03T01:45:30.717Z,1.20
2023-08-03T01:46:32.756Z,1.42
2023-08-03T01:47:34.778Z,1.15
2023-08-03T01:48:36.608Z,1.05
2023-08-03T01:49:38.504Z,1.20
2023-08-03T01:50:40.338Z,1.45
2023-08-03T01:51:42.434Z,1.23
2023-08-03T01:52:44.502Z,1.02
2023-08-03T01:53:46.663Z,1.10
2023-08-03T01:54:48.532Z,1.70
2023-08-03T01:55:50.844Z,1.20
2023-08-03T01:56:55.110Z,0.93
2023-08-03T01:57:57.255Z,1.75
2023-08-03T01:58:59.117Z,1.23
2023-08-03T02:00:01.063Z,1.38
2023-08-03T02:01:03.740Z,1.65
2023-08-03T02:02:06.009Z,1.50
2023-08-03T02:03:08.242Z,1.02
2023-08-03T02:04:10.189Z,1.30
2023-08-03T02:05:12.092Z,1.48
2023-08-03T02:06:13.903Z,1.50
2023-08-03T02:07:47.898Z,1.50
2023-08-03T02:08:49.951Z,1.58
2023-08-03T02:09:54.787Z,1.55
2023-08-03T02:10:56.836Z,1.42
2023-08-03T02:11:58.617Z,1.40
2023-08-03T02:13:00.509Z,1.70
2023-08-03T02:14:02.426Z,2.20
2023-08-03T02:15:08.244Z,1.30
2023-08-03T02:16:23.752Z,2.40
2023-08-03T02:17:29.147Z,1.75
2023-08-03T02:18:31.688Z,1.58
2023-08-03T02:19:35.956Z,1.30
2023-08-03T02:20:40.282Z,1.48
2023-08-03T02:21:42.361Z,1.23
2023-08-03T02:22:44.803Z,1.50
2023-08-03T02:23:47.224Z,1.85
2023-08-03T02:24:48.964Z,1.45
2023-08-03T02:25:53.980Z,1.90
2023-08-03T02:26:55.802Z,1.63
2023-08-03T02:27:57.603Z,1.45
2023-08-03T02:28:59.532Z,1.42
2023-08-03T02:30:01.330Z,1.70
2023-08-03T02:31:03.142Z,1.45
2023-08-03T02:32:05.615Z,1.35
2023-08-03T02:33:07.447Z,1.40
2023-08-03T02:34:09.263Z,1.40
2023-08-03T02:35:11.106Z,1.40
2023-08-03T02:36:12.983Z,1.25
2023-08-03T02:37:14.960Z,1.52
2023-08-03T02:38:16.817Z,1.60
2023-08-03T02:39:18.672Z,1.42
2023-08-03T02:40:20.476Z,1.65
2023-08-03T02:41:22.294Z,1.40
2023-08-03T02:42:24.123Z,1.50
2023-08-03T02:43:28.134Z,1.42
2023-08-03T02:44:29.987Z,1.45
2023-08-03T02:45:31.804Z,1.60
2023-08-03T02:46:33.584Z,1.60
2023-08-03T02:47:35.422Z,1.50
2023-08-03T02:48:37.318Z,1.48
2023-08-03T02:49:39.146Z,1.50
2023-08-03T02:50:41.431Z,1.50
2023-08-03T02:51:46.554Z,1.95
2023-08-03T02:52:48.773Z,1.85
2023-08-03T02:53:50.574Z,1.33
2023-08-03T02:54:52.472Z,1.75
2023-08-03T02:55:54.439Z,1.80
2023-08-03T02:56:56.316Z,1.40
2023-08-03T02:57:58.253Z,1.60
2023-08-03T02:59:00.139Z,1.73
2023-08-03T03:00:01.951Z,1.50
2023-08-03T03:01:05.940Z,1.65
2023-08-03T03:02:07.922Z,1.60
2023-08-03T03:03:09.915Z,1.88
2023-08-03T03:04:12.296Z,1.70
2023-08-03T03:05:14.166Z,1.88
2023-08-03T03:06:15.982Z,1.90
2023-08-03T03:07:17.845Z,1.70
2023-08-03T03:08:19.705Z,2.42
2023-08-03T03:09:21.473Z,2.13
2023-08-03T03:10:23.232Z,2.10
2023-08-03T03:11:25.035Z,2.03
2023-08-03T03:12:27.113Z,1.50
2023-08-03T03:13:28.904Z,1.70
2023-08-03T03:14:30.786Z,2.10
2023-08-03T03:15:32.613Z,2.22
2023-08-03T03:16:34.461Z,1.80
2023-08-03T03:17:36.358Z,1.77
2023-08-03T03:18:38.245Z,2.20
2023-08-03T03:19:40.070Z,1.80
2023-08-03T03:20:41.903Z,1.55
2023-08-03T03:21:43.985Z,1.70
2023-08-03T03:22:46.098Z,1.80
2023-08-03T03:23:50.987Z,1.75
2023-08-03T03:24:52.837Z,1.80
2023-08-03T03:25:54.719Z,2.17
2023-08-03T03:26:56.542Z,1.80
2023-08-03T03:28:05.096Z,1.60
2023-08-03T03:29:07.031Z,1.73
2023-08-03T03:30:09.544Z,1.65
2023-08-03T03:31:11.345Z,1.77
2023-08-03T03:32:13.144Z,1.95
2023-08-03T03:33:15.039Z,1.38
2023-08-03T03:34:16.868Z,1.63
2023-08-03T03:35:18.778Z,1.70
2023-08-03T03:36:20.528Z,1.60
2023-08-03T03:37:22.438Z,1.60
2023-08-03T03:38:24.186Z,1.70
2023-08-03T03:39:26.000Z,1.80
2023-08-03T03:40:29.160Z,2.10
2023-08-03T03:41:30.959Z,1.63
2023-08-03T03:42:32.744Z,1.80
2023-08-03T03:43:34.599Z,1.40
2023-08-03T03:44:36.490Z,1.80
2023-08-03T03:45:38.353Z,1.42
2023-08-03T03:46:40.336Z,1.40
2023-08-03T03:47:42.714Z,1.70
2023-08-03T03:48:44.623Z,1.50
2023-08-03T03:49:47.852Z,1.73
2023-08-03T03:50:49.770Z,1.15
2023-08-03T03:51:51.491Z,1.40
2023-08-03T03:52:53.320Z,1.60
2023-08-03T03:53:55.154Z,2.00
2023-08-03T03:54:56.964Z,1.45
2023-08-03T03:55:58.799Z,1.80
2023-08-03T03:57:01.827Z,1.75
2023-08-03T03:58:04.059Z,1.40
2023-08-03T03:59:05.948Z,1.55
2023-08-03T04:00:09.132Z,1.50
2023-08-03T04:01:10.951Z,1.80
2023-08-03T04:02:12.884Z,1.50
2023-08-03T04:03:14.777Z,1.63
2023-08-03T04:04:16.614Z,2.22
2023-08-03T04:05:18.544Z,2.10
2023-08-03T04:06:20.373Z,1.70
2023-08-03T04:07:22.268Z,1.60
2023-08-03T04:08:24.028Z,1.58
2023-08-03T04:09:25.925Z,1.50
2023-08-03T04:10:27.801Z,1.75
2023-08-03T04:11:49.677Z,1.42
2023-08-03T04:13:11.465Z,1.50
2023-08-03T04:14:33.349Z,1.70
2023-08-03T04:15:35.161Z,1.33
2023-08-03T04:16:36.947Z,1.65
2023-08-03T04:17:39.694Z,1.67
2023-08-03T04:18:41.868Z,2.00
2023-08-03T04:19:43.691Z,1.80
2023-08-03T04:20:45.651Z,1.40
2023-08-03T04:21:47.791Z,1.58
2023-08-03T04:22:49.668Z,1.50
2023-08-03T04:23:51.475Z,1.27
2023-08-03T04:24:53.252Z,1.55
2023-08-03T04:25:55.141Z,1.30
2023-08-03T04:26:56.894Z,1.35
2023-08-03T04:27:59.384Z,1.73
2023-08-03T04:29:01.205Z,1.80
2023-08-03T04:30:03.187Z,1.40
2023-08-03T04:31:04.957Z,1.92
2023-08-03T04:32:07.598Z,1.60
2023-08-03T04:33:09.459Z,1.45
2023-08-03T04:34:11.259Z,1.30
2023-08-03T04:35:15.099Z,1.60
2023-08-03T04:36:16.834Z,1.40
2023-08-03T04:37:18.650Z,1.70
2023-08-03T04:38:20.473Z,1.73
2023-08-03T04:39:22.283Z,1.48
2023-08-03T04:40:24.069Z,1.92
2023-08-03T04:41:25.911Z,1.25
2023-08-03T04:42:27.710Z,1.60
2023-08-03T04:43:30.026Z,1.23
2023-08-03T04:44:31.926Z,1.52
2023-08-03T04:45:34.615Z,1.75
2023-08-03T04:46:36.492Z,1.55
2023-08-03T04:47:39.234Z,1.65
2023-08-03T04:48:41.285Z,1.75
2023-08-03T04:49:43.036Z,1.80
2023-08-03T04:50:44.809Z,1.60
2023-08-03T04:51:47.005Z,1.23
2023-08-03T04:52:49.145Z,1.75
2023-08-03T04:53:50.947Z,1.63
2023-08-03T04:54:52.720Z,1.52
2023-08-03T04:55:54.546Z,2.20
2023-08-03T04:56:56.300Z,1.70
2023-08-03T04:57:58.196Z,1.85
2023-08-03T04:58:59.946Z,1.50
2023-08-03T05:00:01.806Z,1.90
2023-08-03T05:01:03.991Z,1.60
2023-08-03T05:02:05.962Z,1.58
2023-08-03T05:03:07.853Z,1.30
2023-08-03T05:04:10.441Z,1.60
2023-08-03T05:05:12.454Z,1.98
2023-08-03T05:06:14.271Z,1.50
2023-08-03T05:07:16.072Z,1.65
2023-08-03T05:08:17.940Z,1.33
2023-08-03T05:09:19.728Z,1.35
2023-08-03T05:10:21.576Z,1.42
2023-08-03T05:11:23.428Z,1.90
2023-08-03T05:12:25.181Z,1.50
2023-08-03T05:13:26.971Z,1.70
2023-08-03T05:14:28.853Z,1.40
2023-08-03T05:15:30.612Z,1.30
2023-08-03T05:16:32.410Z,1.33
2023-08-03T05:17:34.353Z,1.40
2023-08-03T05:18:36.486Z,1.88
2023-08-03T05:19:38.763Z,1.50
2023-08-03T05:20:40.566Z,1.98
2023-08-03T05:21:42.497Z,1.40
2023-08-03T05:22:44.660Z,1.45
2023-08-03T05:23:48.053Z,1.60
2023-08-03T05:24:49.857Z,1.35
2023-08-03T05:25:56.936Z,1.50
2023-08-03T05:26:58.710Z,2.08
2023-08-03T05:28:02.221Z,1.70
2023-08-03T05:29:04.633Z,2.45
2023-08-03T05:30:08.693Z,1.77
2023-08-03T05:31:10.613Z,1.55
2023-08-03T05:32:12.438Z,1.60
2023-08-03T05:33:14.375Z,1.27
2023-08-03T05:34:19.147Z,1.63
2023-08-03T05:35:21.091Z,1.75
2023-08-03T05:36:24.872Z,1.60
2023-08-03T05:37:26.845Z,1.70
2023-08-03T05:38:28.932Z,1.40
2023-08-03T05:39:30.773Z,1.73
2023-08-03T05:40:32.824Z,1.50
2023-08-03T05:41:35.114Z,1.50
2023-08-03T05:42:41.748Z,1.67
2023-08-03T05:43:46.329Z,1.92
2023-08-03T05:44:48.352Z,1.20
2023-08-03T05:46:02.016Z,1.55
2023-08-03T05:47:04.117Z,1.33
2023-08-03T05:48:16.987Z,1.33
2023-08-03T05:49:18.848Z,2.63
2023-08-03T05:50:20.807Z,1.63
2023-08-03T05:51:28.980Z,1.27
2023-08-03T05:52:31.256Z,1.58
2023-08-03T05:53:33.934Z,4.00
2023-08-03T05:54:35.728Z,1.20
2023-08-03T05:55:39.714Z,1.20
2023-08-03T05:56:42.270Z,1.73
2023-08-03T05:57:44.638Z,1.02
2023-08-03T05:58:46.740Z,1.10
2023-08-03T05:59:48.957Z,1.58
2023-08-03T06:00:51.742Z,1.67
2023-08-03T06:01:53.968Z,1.40
2023-08-03T06:03:02.453Z,1.48
2023-08-03T06:04:14.261Z,1.38
2023-08-03T06:05:47.108Z,1.55
2023-08-03T06:06:49.076Z,1.25
2023-08-03T06:07:50.929Z,1.20
2023-08-03T06:08:57.591Z,1.33
2023-08-03T06:09:59.454Z,1.20
2023-08-03T06:11:05.629Z,1.90
2023-08-03T06:12:15.788Z,1.50
2023-08-03T06:13:22.467Z,1.30
2023-08-03T06:14:24.279Z,1.55
2023-08-03T06:15:26.067Z,1.55
2023-08-03T06:16:28.090Z,1.00
2023-08-03T06:17:29.864Z,1.50
2023-08-03T06:18:33.390Z,1.15
2023-08-03T06:19:36.761Z,1.30
2023-08-03T06:20:47.905Z,1.10
2023-08-03T06:21:49.922Z,1.25
2023-08-03T06:22:51.752Z,1.25
2023-08-03T06:24:01.089Z,1.30
2023-08-03T06:25:10.596Z,1.20
2023-08-03T06:26:16.318Z,1.67
2023-08-03T06:27:18.179Z,0.90
2023-08-03T06:28:24.323Z,1.20
2023-08-03T06:29:26.198Z,1.40
2023-08-03T06:30:28.109Z,1.00
2023-08-03T06:31:42.877Z,1.10
2023-08-03T06:32:45.574Z,1.50
2023-08-03T06:33:48.637Z,1.25
2023-08-03T06:34:50.597Z,1.13
2023-08-03T06:35:57.063Z,1.77
2023-08-03T06:37:00.529Z,1.38
2023-08-03T06:38:03.732Z,1.70
2023-08-03T06:39:05.606Z,1.52
2023-08-03T06:40:08.361Z,1.52
2023-08-03T06:41:10.962Z,1.40
2023-08-03T06:42:12.714Z,1.52
2023-08-03T06:43:15.870Z,0.95
2023-08-03T06:44:17.971Z,1.17
2023-08-03T06:45:19.964Z,1.20
2023-08-03T06:46:22.969Z,1.10
2023-08-03T06:47:24.810Z,1.10
2023-08-03T06:48:26.913Z,1.20
2023-08-03T06:49:28.852Z,1.27
2023-08-03T06:50:35.373Z,1.02
2023-08-03T06:51:39.567Z,0.95
2023-08-03T06:52:41.459Z,1.20
2023-08-03T06:53:44.126Z,0.80
2023-08-03T06:54:46.154Z,0.80
2023-08-03T06:55:51.173Z,1.08
2023-08-03T06:56:53.390Z,0.95
2023-08-03T06:57:55.212Z,1.10
2023-08-03T06:58:57.008Z,1.05
2023-08-03T06:59:59.412Z,1.13
2023-08-03T07:01:01.819Z,1.17
2023-08-03T07:02:03.810Z,1.13
2023-08-03T07:03:05.741Z,0.77
2023-08-03T07:04:07.593Z,1.20
2023-08-03T07:06:12.057Z,1.13
2023-08-03T07:07:15.339Z,1.08
2023-08-03T07:08:17.577Z,1.40
2023-08-03T07:09:19.423Z,1.50
2023-08-03T07:10:21.221Z,1.23
2023-08-03T07:11:23.271Z,0.70
2023-08-03T07:12:25.057Z,1.10
2023-08-03T07:13:26.920Z,1.05
2023-08-03T07:14:28.774Z,1.20
2023-08-03T07:15:35.220Z,1.10
2023-08-03T07:16:38.132Z,1.00
2023-08-03T07:17:40.083Z,0.75
2023-08-03T07:18:41.913Z,1.00
2023-08-03T07:19:43.884Z,1.33
2023-08-03T07:20:45.656Z,1.10
2023-08-03T07:21:47.686Z,1.00
2023-08-03T07:22:50.105Z,1.15
2023-08-03T07:23:51.970Z,1.10
2023-08-03T07:24:53.795Z,0.80
2023-08-03T07:25:56.036Z,1.13
2023-08-03T07:26:57.861Z,1.20
2023-08-03T07:28:00.991Z,0.60
2023-08-03T07:29:03.033Z,1.10
2023-08-03T07:30:07.009Z,1.13
2023-08-03T07:31:16.304Z,0.77
2023-08-03T07:32:18.437Z,0.75
2023-08-03T07:33:20.256Z,1.30
2023-08-03T07:34:22.447Z,0.77
2023-08-03T07:35:24.330Z,0.65
2023-08-03T07:36:26.118Z,0.98
2023-08-03T07:37:27.968Z,0.90
2023-08-03T07:38:29.775Z,1.00
2023-08-03T07:39:32.667Z,1.02
2023-08-03T07:40:34.463Z,0.95
2023-08-03T07:41:36.414Z,0.80
2023-08-03T07:42:38.354Z,1.02
2023-08-03T07:43:40.243Z,1.05
2023-08-03T07:46:51.599Z,0.90
2023-08-03T07:47:53.596Z,1.05
2023-08-03T07:48:56.885Z,0.50
2023-08-03T07:50:00.544Z,1.08
2023-08-03T07:51:18.930Z,1.08
2023-08-03T07:52:23.397Z,1.40
2023-08-03T07:53:25.261Z,0.95
2023-08-03T07:54:27.052Z,0.90
2023-08-03T07:55:28.856Z,2.10
2023-08-03T07:56:30.970Z,1.20
2023-08-03T07:57:39.563Z,1.40
2023-08-03T07:58:41.329Z,0.70
2023-08-03T07:59:52.007Z,0.60
2023-08-03T08:00:53.867Z,1.10
2023-08-03T08:01:55.779Z,1.30
2023-08-03T08:02:57.851Z,0.85
2023-08-03T08:03:59.925Z,1.05
2023-08-03T08:05:01.749Z,0.90
2023-08-03T08:06:12.411Z,0.70
2023-08-03T08:07:14.567Z,0.95
2023-08-03T08:08:16.338Z,0.57
2023-08-03T08:09:18.151Z,0.90
2023-08-03T08:10:20.012Z,1.20
2023-08-03T08:11:22.203Z,0.60
2023-08-03T08:12:24.022Z,0.50
2023-08-03T08:13:26.028Z,0.80
2023-08-03T08:14:27.869Z,1.35
2023-08-03T08:15:30.113Z,0.70
2023-08-03T08:16:32.230Z,0.50
2023-08-03T08:17:34.238Z,0.60
2023-08-03T08:18:37.753Z,0.60
2023-08-03T08:19:39.692Z,0.80
2023-08-03T08:20:41.603Z,2.05
2023-08-03T08:21:43.753Z,1.20
2023-08-03T08:22:45.836Z,1.33
2023-08-03T08:23:47.710Z,2.10
2023-08-03T08:24:49.671Z,1.55
2023-08-03T08:25:52.760Z,1.60
2023-08-03T08:26:55.191Z,1.17
2023-08-03T08:27:57.321Z,0.98
2023-08-03T08:29:04.293Z,1.67
2023-08-03T08:30:09.053Z,0.73
2023-08-03T08:31:11.101Z,0.60
2023-08-03T08:32:13.338Z,0.85
2023-08-03T08:33:18.897Z,0.60
2023-08-03T08:34:20.829Z,1.35
2023-08-03T08:35:22.671Z,0.60
2023-08-03T08:36:25.494Z,0.70
2023-08-03T08:37:29.362Z,1.10
2023-08-03T08:38:32.315Z,0.65
2023-08-03T08:39:34.184Z,0.50
2023-08-03T08:40:38.136Z,0.73
2023-08-03T08:41:43.492Z,0.80
2023-08-03T08:42:53.749Z,0.50
2023-08-03T08:43:55.624Z,0.80
2023-08-03T08:44:57.609Z,0.60
2023-08-03T08:45:59.827Z,0.73
2023-08-03T08:47:01.740Z,0.60
2023-08-03T08:52:00.020Z,0.50
2023-08-03T09:00:01.076Z,0.47
2023-08-03T09:01:06.312Z,0.30
2023-08-03T09:02:08.438Z,0.40
2023-08-03T09:03:10.571Z,0.43
2023-08-03T09:07:20.650Z,0.50
2023-08-03T09:08:22.924Z,0.40
2023-08-03T09:09:34.935Z,0.30
2023-08-03T09:10:55.598Z,0.30
2023-08-03T09:11:57.728Z,0.40
2023-08-03T09:13:00.106Z,0.57
2023-08-03T09:14:04.767Z,0.40
2023-08-03T09:15:08.163Z,0.40
2023-08-03T09:16:25.640Z,0.70
2023-08-03T09:17:29.176Z,0.32
2023-08-03T09:18:33.471Z,0.45
2023-08-03T09:20:43.404Z,0.40
2023-08-03T09:24:36.603Z,0.40
2023-08-03T09:25:41.543Z,0.68
2023-08-03T09:29:21.171Z,0.40
2023-08-03T09:32:57.174Z,0.52
2023-08-03T09:34:01.345Z,0.35
2023-08-03T09:35:15.935Z,0.50
2023-08-03T09:38:42.849Z,0.40
2023-08-03T09:39:56.552Z,0.40
2023-08-03T09:41:00.559Z,1.13
2023-08-03T09:42:35.323Z,0.40
2023-08-03T09:43:36.061Z,0.40
2023-08-03T09:44:40.259Z,0.50
2023-08-03T09:45:43.237Z,0.60
2023-08-03T09:46:50.404Z,0.50
2023-08-03T09:47:57.239Z,1.17
2023-08-03T09:50:05.491Z,0.40
2023-08-03T09:51:11.107Z,0.63
2023-08-03T09:52:49.083Z,0.50
2023-08-03T09:53:44.554Z,0.55
2023-08-03T09:55:07.958Z,0.50
2023-08-03T09:56:12.129Z,0.30
2023-08-03T09:58:31.915Z,0.60
2023-08-03T09:59:40.370Z,0.38
2023-08-03T10:00:47.219Z,0.40
2023-08-03T10:01:52.950Z,0.35
2023-08-03T10:03:08.501Z,0.50
2023-08-03T10:04:17.960Z,0.50
2023-08-03T10:06:40.069Z,0.30
2023-08-03T10:08:04.832Z,0.35
2023-08-03T10:09:09.572Z,0.47
2023-08-03T10:10:14.815Z,0.40
2023-08-03T10:11:16.852Z,0.40
2023-08-03T10:12:35.541Z,0.40
2023-08-03T10:13:45.698Z,0.40
2023-08-03T10:14:53.065Z,0.35
2023-08-03T10:15:55.997Z,0.30
2023-08-03T10:17:01.806Z,0.70
2023-08-03T10:18:05.986Z,0.30
2023-08-03T10:19:09.737Z,0.30
2023-08-03T10:20:12.305Z,0.50
2023-08-03T10:21:14.918Z,0.50
2023-08-03T10:22:17.028Z,0.38
2023-08-03T10:23:20.150Z,0.30
2023-08-03T10:24:22.125Z,0.40
2023-08-03T10:25:24.249Z,0.52
2023-08-03T10:26:26.058Z,0.50
2023-08-03T10:27:27.916Z,0.50
2023-08-03T10:28:41.882Z,0.40
2023-08-03T10:29:54.380Z,0.63
2023-08-03T10:31:22.431Z,0.40
2023-08-03T10:32:29.367Z,0.60
2023-08-03T10:33:52.436Z,0.32
2023-08-03T10:34:59.639Z,0.30
2023-08-03T10:36:01.830Z,0.40
2023-08-03T10:37:14.036Z,0.60
2023-08-03T10:38:23.198Z,0.50
2023-08-03T10:39:49.844Z,0.50
2023-08-03T10:41:45.913Z,0.40
2023-08-03T10:43:10.685Z,0.30
2023-08-03T10:44:15.926Z,0.40
2023-08-03T10:45:23.743Z,0.50
2023-08-03T10:46:52.734Z,0.38
2023-08-03T10:48:22.879Z,0.40
2023-08-03T10:49:24.893Z,2.45
2023-08-03T10:51:04.032Z,0.40
2023-08-03T10:52:40.868Z,0.63
2023-08-03T10:53:42.657Z,0.40
2023-08-03T10:54:46.582Z,0.57
2023-08-03T10:55:49.420Z,0.40
2023-08-03T10:57:05.735Z,0.40
2023-08-03T10:58:07.650Z,0.40
2023-08-03T10:59:09.469Z,0.40
2023-08-03T11:00:13.228Z,0.50
2023-08-03T11:01:25.520Z,0.50
2023-08-03T11:02:32.834Z,0.45
2023-08-03T11:03:38.940Z,0.40
2023-08-03T11:04:42.364Z,0.60
2023-08-03T11:05:53.239Z,0.47
2023-08-03T11:06:55.097Z,0.40
2023-08-03T11:07:58.022Z,0.50
2023-08-03T11:08:59.993Z,0.40
2023-08-03T11:10:10.522Z,0.30
2023-08-03T11:11:13.240Z,0.40
2023-08-03T11:12:19.581Z,0.45
2023-08-03T11:13:22.786Z,0.40
2023-08-03T11:14:25.215Z,0.40
2023-08-03T11:15:28.327Z,0.43
2023-08-03T11:16:32.697Z,0.50
2023-08-03T11:17:38.652Z,0.30
2023-08-03T11:18:49.403Z,0.40
2023-08-03T11:19:53.115Z,0.38
2023-08-03T11:20:54.992Z,0.50
2023-08-03T11:21:56.977Z,0.63
2023-08-03T11:22:58.839Z,0.60
2023-08-03T11:24:00.833Z,0.40
2023-08-03T11:25:07.210Z,0.40
2023-08-03T11:26:11.752Z,0.63
2023-08-03T11:27:14.375Z,0.65
2023-08-03T11:28:22.685Z,0.50
2023-08-03T11:29:25.068Z,0.40
2023-08-03T11:30:28.508Z,0.60
2023-08-03T11:31:30.377Z,0.77
2023-08-03T11:32:35.014Z,0.60
2023-08-03T11:33:39.580Z,0.40
2023-08-03T11:34:41.626Z,0.50
2023-08-03T11:35:44.556Z,0.50
2023-08-03T11:36:52.230Z,0.60
2023-08-03T11:37:54.028Z,0.65
2023-08-03T11:38:55.856Z,0.40
2023-08-03T11:40:00.206Z,0.40
2023-08-03T11:41:02.694Z,0.43
2023-08-03T11:42:05.572Z,0.50
2023-08-03T11:43:08.151Z,0.50
2023-08-03T11:44:10.362Z,0.50
2023-08-03T11:45:13.884Z,0.60
2023-08-03T11:46:15.863Z,0.40
2023-08-03T11:47:18.065Z,0.50
2023-08-03T11:48:25.788Z,0.50
2023-08-03T11:49:31.312Z,0.30
2023-08-03T11:50:33.213Z,0.63
2023-08-03T11:51:38.158Z,0.50
2023-08-03T11:52:40.169Z,0.52
2023-08-03T11:53:42.171Z,0.60
2023-08-03T11:54:45.728Z,0.55
2023-08-03T11:55:48.928Z,0.40
2023-08-03T11:56:51.522Z,0.60
2023-08-03T11:58:14.893Z,0.70
2023-08-03T11:59:16.811Z,0.50
2023-08-03T12:00:19.689Z,0.90
2023-08-03T12:01:27.044Z,0.40
2023-08-03T12:02:47.112Z,0.80
2023-08-03T12:03:49.410Z,0.60
2023-08-03T12:04:54.476Z,0.60
2023-08-03T12:06:10.238Z,0.68
2023-08-03T12:07:29.141Z,0.70
2023-08-03T12:08:31.168Z,0.60
2023-08-03T12:09:40.989Z,0.55
2023-08-03T12:11:02.775Z,0.60
2023-08-03T12:12:08.292Z,0.50
2023-08-03T12:13:10.133Z,0.55
2023-08-03T12:14:12.078Z,0.65
2023-08-03T12:15:14.008Z,0.50
2023-08-03T12:16:16.014Z,0.57
2023-08-03T12:17:17.896Z,0.50
2023-08-03T12:18:20.879Z,2.65
2023-08-03T12:19:22.821Z,0.60
2023-08-03T12:20:27.260Z,0.90
2023-08-03T12:21:29.506Z,0.70
2023-08-03T12:22:34.401Z,0.80
2023-08-03T12:23:36.376Z,0.75
2023-08-03T12:24:38.261Z,0.70
2023-08-03T12:25:42.329Z,0.45
2023-08-03T12:26:44.516Z,0.50
2023-08-03T12:27:46.415Z,0.60
2023-08-03T12:28:48.401Z,0.65
2023-08-03T12:29:50.250Z,0.90
2023-08-03T12:30:53.318Z,0.40
2023-08-03T12:31:55.294Z,0.43
2023-08-03T12:32:57.404Z,0.45
2023-08-03T12:33:59.622Z,0.50
2023-08-03T12:35:01.495Z,1.15
2023-08-03T12:36:03.442Z,0.50
2023-08-03T12:37:05.976Z,0.60
2023-08-03T12:38:08.098Z,0.70
2023-08-03T12:39:10.865Z,0.50
2023-08-03T12:40:14.689Z,0.82
2023-08-03T12:41:19.002Z,0.40
2023-08-03T12:42:22.663Z,0.50
2023-08-03T12:43:24.891Z,0.40
2023-08-03T12:44:27.598Z,0.70
2023-08-03T12:45:29.528Z,0.50
2023-08-03T12:46:31.452Z,0.60
2023-08-03T12:47:36.891Z,0.50
2023-08-03T12:48:39.075Z,0.55
2023-08-03T12:49:40.976Z,0.60
2023-08-03T12:50:42.776Z,0.50
2023-08-03T12:51:44.530Z,0.40
2023-08-03T12:52:47.697Z,0.50
2023-08-03T12:53:50.368Z,0.50
2023-08-03T12:54:53.586Z,0.60
2023-08-03T12:55:55.834Z,1.08
2023-08-03T12:56:57.675Z,1.55
2023-08-03T12:57:59.491Z,0.40
2023-08-03T12:59:01.461Z,0.40
2023-08-03T13:00:03.997Z,0.52
2023-08-03T13:01:05.862Z,0.43
2023-08-03T13:02:07.729Z,0.50
2023-08-03T13:03:09.666Z,0.50
2023-08-03T13:04:11.514Z,0.73
2023-08-03T13:05:13.436Z,0.30
2023-08-03T13:06:15.331Z,0.65
2023-08-03T13:07:20.727Z,0.50
2023-08-03T13:08:24.526Z,0.50
2023-08-03T13:09:26.408Z,0.40
2023-08-03T13:10:28.341Z,0.52
2023-08-03T13:11:30.214Z,0.50
2023-08-03T13:12:32.063Z,0.60
2023-08-03T13:13:33.961Z,0.70
2023-08-03T13:14:39.619Z,0.40
2023-08-03T13:15:41.514Z,0.60
2023-08-03T13:16:43.398Z,0.60
2023-08-03T13:17:45.518Z,1.27
2023-08-03T13:18:49.702Z,0.88
2023-08-03T13:19:51.732Z,0.63
2023-08-03T13:21:02.328Z,0.60
2023-08-03T13:22:04.865Z,1.00
2023-08-03T13:23:08.138Z,0.60
2023-08-03T13:24:09.976Z,0.63
2023-08-03T13:25:11.776Z,0.73
2023-08-03T13:26:13.708Z,0.50
2023-08-03T13:27:20.566Z,0.73
2023-08-03T13:28:22.789Z,0.55
2023-08-03T13:29:24.744Z,0.50
2023-08-03T13:30:26.907Z,0.40
2023-08-03T13:31:28.867Z,0.50
2023-08-03T13:32:30.747Z,0.60
2023-08-03T13:33:32.660Z,0.45
2023-08-03T13:34:34.455Z,0.82
2023-08-03T13:35:36.515Z,0.30
2023-08-03T13:36:38.410Z,0.57
2023-08-03T13:37:40.573Z,0.50
2023-08-03T13:38:42.499Z,0.38
2023-08-03T13:39:44.268Z,0.93
2023-08-03T13:40:46.117Z,0.60
2023-08-03T13:41:47.901Z,0.50
2023-08-03T13:42:49.689Z,0.95
2023-08-03T13:43:51.665Z,0.70
2023-08-03T13:44:53.463Z,0.70
2023-08-03T13:45:55.711Z,0.70
2023-08-03T13:47:00.812Z,0.60
2023-08-03T13:48:02.888Z,0.50
2023-08-03T13:49:04.788Z,0.50
2023-08-03T13:50:07.205Z,0.60
2023-08-03T13:51:09.026Z,0.50
2023-08-03T13:52:10.819Z,0.60
2023-08-03T13:53:14.304Z,1.10
2023-08-03T13:54:16.357Z,0.40
2023-08-03T13:55:18.426Z,0.45
2023-08-03T13:56:32.368Z,0.60
2023-08-03T13:57:35.483Z,0.65
2023-08-03T13:59:42.762Z,0.63
2023-08-03T14:00:47.133Z,0.70
2023-08-03T14:02:02.147Z,0.50
2023-08-03T14:03:06.583Z,0.43
2023-08-03T14:04:09.984Z,0.60
2023-08-03T14:05:12.429Z,2.00
2023-08-03T14:07:50.477Z,0.60
2023-08-03T14:12:16.651Z,0.50
2023-08-03T14:13:18.964Z,0.52
2023-08-03T14:16:31.174Z,0.60
2023-08-03T14:19:43.196Z,0.60
2023-08-03T14:21:53.610Z,1.25
2023-08-03T14:22:57.118Z,0.60
2023-08-03T14:24:05.617Z,0.80
2023-08-03T14:26:13.584Z,1.20
2023-08-03T14:29:25.257Z,1.10
2023-08-03T14:30:27.135Z,1.58
2023-08-03T14:31:29.082Z,1.38
2023-08-03T14:32:31.032Z,1.70
2023-08-03T14:33:33.453Z,1.92
2023-08-03T14:35:40.428Z,1.10
2023-08-03T14:36:42.241Z,2.72
2023-08-03T14:37:44.850Z,2.17
2023-08-03T14:38:46.661Z,0.98
2023-08-03T14:39:48.497Z,0.88
2023-08-03T14:40:50.283Z,1.20
2023-08-03T14:41:52.450Z,0.73
2023-08-03T14:42:56.857Z,1.40
2023-08-03T14:45:04.832Z,1.10
2023-08-03T14:46:07.119Z,1.08
2023-08-03T14:47:09.253Z,1.00
2023-08-03T14:49:20.549Z,1.10
2023-08-03T14:50:22.829Z,1.10
2023-08-03T14:52:29.761Z,1.25
2023-08-03T14:53:31.807Z,0.80
2023-08-03T14:54:34.154Z,0.50
2023-08-03T14:56:33.334Z,0.73
2023-08-03T14:56:57.847Z,0.82
2023-08-03T14:57:59.666Z,1.10
2023-08-03T14:59:05.166Z,1.00
2023-08-03T15:00:09.857Z,1.10
2023-08-03T15:01:11.697Z,1.15